Time;durP1;ratioP1;P1;durP2;ratioP2;P2;SDS_P1;SDS_P2;PMS_P1;PMS_P2;Temp;Humidity;BMP_temperature;BMP_pressure;BME280_temperature;BME280_humidity;BME280_pressure;Samples;Min_cycle;Max_cycle;Signal;HPM_P1;HPM_P2
2023/04/22 00:00:19;;;;;;;19.10;14.25;;;23.80;47.10;;;;;;5040324;28;20032;-68
2023/04/22 00:02:45;;;;;;;16.40;13.77;;;23.70;47.00;;;;;;5042950;28;20444;-68
2023/04/22 00:05:13;;;;;;;18.60;14.02;;;23.70;47.00;;;;;;5042112;28;20037;-68
2023/04/22 00:07:41;;;;;;;17.98;13.93;;;23.70;47.50;;;;;;5039801;28;20104;-67
2023/04/22 00:10:14;;;;;;;16.23;12.80;;;23.70;47.00;;;;;;5039772;28;20076;-68
2023/04/22 00:12:40;;;;;;;16.92;13.55;;;23.70;46.90;;;;;;5073197;28;20479;-68
2023/04/22 00:15:06;;;;;;;15.60;13.15;;;23.70;47.00;;;;;;5040381;28;20113;-68
2023/04/22 00:17:32;;;;;;;16.60;13.25;;;23.70;47.00;;;;;;5072962;28;20071;-67
2023/04/22 00:20:00;;;;;;;16.45;12.73;;;23.70;47.00;;;;;;5040564;28;20468;-68
2023/04/22 00:22:25;;;;;;;17.45;13.48;;;23.70;47.00;;;;;;5039103;28;20393;-67
2023/04/22 00:24:51;;;;;;;16.60;13.70;;;23.70;47.00;;;;;;5040594;28;20029;-68
2023/04/22 00:27:17;;;;;;;17.48;13.25;;;23.70;47.00;;;;;;5043810;28;20032;-68
2023/04/22 00:29:42;;;;;;;15.40;12.35;;;23.70;47.00;;;;;;5038756;28;20021;-67
2023/04/22 00:32:08;;;;;;;15.98;12.52;;;23.70;47.00;;;;;;5039875;28;20033;-67
2023/04/22 00:34:33;;;;;;;15.35;12.68;;;23.70;46.90;;;;;;5041099;28;20021;-68
2023/04/22 00:36:59;;;;;;;15.82;12.45;;;23.70;47.00;;;;;;5041639;28;20017;-68
2023/04/22 00:39:25;;;;;;;14.45;12.15;;;23.70;46.90;;;;;;5042639;28;20498;-68
2023/04/22 00:41:51;;;;;;;15.25;12.13;;;23.60;46.90;;;;;;5039875;28;20025;-67
2023/04/22 00:44:17;;;;;;;16.35;12.40;;;23.60;46.90;;;;;;5041417;28;20036;-67
2023/04/22 00:46:44;;;;;;;15.50;12.52;;;23.60;46.90;;;;;;5069785;28;20450;-68
2023/04/22 00:49:10;;;;;;;15.13;13.00;;;23.60;46.90;;;;;;5035880;28;20507;-68
2023/04/22 00:51:35;;;;;;;15.63;12.50;;;23.60;46.90;;;;;;5038824;28;20025;-68
2023/04/22 00:54:02;;;;;;;15.32;12.20;;;23.60;46.90;;;;;;5040845;28;20029;-67
2023/04/22 00:56:30;;;;;;;15.40;11.85;;;23.60;46.90;;;;;;5041158;28;20519;-68
2023/04/22 00:58:56;;;;;;;14.98;12.38;;;23.60;46.90;;;;;;5039731;28;20079;-68
2023/04/22 01:01:23;;;;;;;13.43;11.07;;;23.60;47.00;;;;;;5036100;28;20030;-67
2023/04/22 01:03:49;;;;;;;14.63;11.45;;;23.50;46.90;;;;;;5040748;28;20052;-68
2023/04/22 01:06:18;;;;;;;15.27;11.75;;;23.50;46.90;;;;;;5039484;28;20096;-67
2023/04/22 01:08:44;;;;;;;14.90;11.60;;;23.50;46.90;;;;;;5038801;28;20501;-67
2023/04/22 01:11:10;;;;;;;14.07;11.65;;;23.50;46.80;;;;;;5037621;28;20063;-68
2023/04/22 01:13:37;;;;;;;14.15;10.85;;;23.50;46.90;;;;;;5039782;28;20081;-68
2023/04/22 01:16:07;;;;;;;14.85;11.27;;;23.50;46.90;;;;;;5037752;28;20029;-68
2023/04/22 01:18:33;;;;;;;13.60;10.75;;;23.50;46.90;;;;;;5037402;28;20079;-68
2023/04/22 01:20:58;;;;;;;14.18;10.98;;;23.50;46.90;;;;;;5038183;28;20398;-68
2023/04/22 01:23:24;;;;;;;13.65;11.10;;;23.50;46.90;;;;;;5039450;28;20107;-68
2023/04/22 01:25:50;;;;;;;13.70;10.68;;;23.50;46.90;;;;;;5038397;28;20031;-68
2023/04/22 01:28:16;;;;;;;13.30;10.77;;;23.50;46.90;;;;;;5040047;28;20061;-67
2023/04/22 01:30:43;;;;;;;13.57;11.15;;;23.40;46.80;;;;;;5038263;28;20669;-67
2023/04/22 01:33:10;;;;;;;13.93;11.00;;;23.40;46.80;;;;;;5039869;28;20037;-67
2023/04/22 01:35:36;;;;;;;13.90;10.50;;;23.40;46.80;;;;;;5038160;28;20554;-68
2023/04/22 01:38:07;;;;;;;13.68;10.55;;;23.40;46.80;;;;;;5039808;28;20029;-68
2023/04/22 01:40:34;;;;;;;13.02;10.52;;;23.40;46.90;;;;;;5038087;28;20059;-67
2023/04/22 01:43:00;;;;;;;13.18;10.52;;;23.40;46.90;;;;;;5040489;28;20036;-67
2023/04/22 01:45:27;;;;;;;12.60;10.27;;;23.40;46.90;;;;;;5038521;28;20132;-68
2023/04/22 01:47:53;;;;;;;12.98;10.30;;;23.40;46.90;;;;;;5037951;28;20546;-68
2023/04/22 01:50:19;;;;;;;12.13;9.95;;;23.40;46.90;;;;;;5036954;28;20033;-68
2023/04/22 01:52:44;;;;;;;11.95;9.68;;;23.40;46.90;;;;;;5038498;28;20025;-67
2023/04/22 01:55:10;;;;;;;12.65;10.00;;;23.40;46.90;;;;;;5042333;28;20066;-68
2023/04/22 01:57:35;;;;;;;12.40;10.07;;;23.30;46.90;;;;;;5043864;28;20017;-68
2023/04/22 02:00:02;;;;;;;11.77;9.55;;;23.30;46.90;;;;;;5043404;28;20052;-68
2023/04/22 02:02:27;;;;;;;12.15;9.75;;;23.30;46.90;;;;;;5042453;28;20503;-68
2023/04/22 02:04:53;;;;;;;11.93;9.77;;;23.30;46.90;;;;;;5042303;28;20021;-68
2023/04/22 02:07:19;;;;;;;10.90;9.10;;;23.30;46.90;;;;;;5042261;28;20424;-68
2023/04/22 02:09:44;;;;;;;11.27;9.23;;;23.30;46.90;;;;;;5043041;28;20028;-67
2023/04/22 02:12:10;;;;;;;11.60;9.50;;;23.30;46.90;;;;;;5043265;28;20393;-67
2023/04/22 02:14:36;;;;;;;11.98;9.20;;;23.30;46.90;;;;;;5042914;28;20031;-67
2023/04/22 02:17:02;;;;;;;11.05;9.30;;;23.30;46.90;;;;;;5043049;28;20040;-68
2023/04/22 02:19:28;;;;;;;12.00;9.38;;;23.30;46.90;;;;;;5039131;28;20589;-68
2023/04/22 02:21:54;;;;;;;11.43;9.18;;;23.20;46.90;;;;;;5041783;28;20025;-68
2023/04/22 02:24:20;;;;;;;12.15;9.10;;;23.20;46.90;;;;;;5037596;28;20026;-67
2023/04/22 02:26:46;;;;;;;9.55;8.55;;;23.20;46.90;;;;;;5040742;28;20029;-67
2023/04/22 02:29:12;;;;;;;11.10;8.90;;;23.20;46.90;;;;;;5044070;28;20033;-68
2023/04/22 02:31:37;;;;;;;11.38;9.27;;;23.20;46.90;;;;;;5040144;28;20761;-68
2023/04/22 02:34:03;;;;;;;11.05;8.85;;;23.20;46.90;;;;;;5039683;28;20033;-68
2023/04/22 02:36:30;;;;;;;10.68;8.70;;;23.20;46.90;;;;;;5042223;28;20092;-68
2023/04/22 02:38:56;;;;;;;10.57;8.55;;;23.20;46.90;;;;;;5040580;28;20068;-68
2023/04/22 02:41:23;;;;;;;11.18;8.75;;;23.20;46.90;;;;;;5041771;28;20030;-69
2023/04/22 02:43:48;;;;;;;10.18;8.63;;;23.20;46.90;;;;;;5042742;28;20039;-68
2023/04/22 02:46:17;;;;;;;11.15;8.52;;;23.20;46.90;;;;;;5042378;28;20033;-67
2023/04/22 02:48:43;;;;;;;10.73;8.80;;;23.20;46.90;;;;;;5039975;28;20424;-68
2023/04/22 02:51:08;;;;;;;11.05;8.32;;;23.20;46.90;;;;;;5041356;28;20041;-68
2023/04/22 02:53:35;;;;;;;10.70;8.40;;;23.20;46.90;;;;;;5041185;28;20036;-68
2023/04/22 02:56:00;;;;;;;9.77;8.07;;;23.10;46.80;;;;;;5043013;28;20025;-68
2023/04/22 02:58:26;;;;;;;9.70;8.05;;;23.10;46.80;;;;;;5037600;28;20420;-68
2023/04/22 03:00:52;;;;;;;9.43;8.18;;;23.10;46.80;;;;;;5042759;28;20030;-68
2023/04/22 03:03:18;;;;;;;9.75;8.05;;;23.10;46.80;;;;;;5040807;28;20040;-67
2023/04/22 03:05:43;;;;;;;9.10;7.70;;;23.10;46.80;;;;;;5040886;28;20033;-68
2023/04/22 03:08:09;;;;;;;9.75;8.38;;;23.10;46.80;;;;;;5038117;28;20099;-67
2023/04/22 03:10:35;;;;;;;9.63;7.85;;;23.10;46.80;;;;;;5041506;28;20075;-68
2023/04/22 03:13:01;;;;;;;9.73;7.93;;;23.10;46.80;;;;;;5044574;28;20040;-68
2023/04/22 03:15:26;;;;;;;9.07;7.93;;;23.10;46.80;;;;;;5042094;28;20037;-68
2023/04/22 03:17:52;;;;;;;9.98;7.55;;;23.10;46.80;;;;;;5044083;28;20125;-68
2023/04/22 03:20:18;;;;;;;8.82;7.47;;;23.10;46.80;;;;;;5039891;28;20083;-68
2023/04/22 03:22:44;;;;;;;9.43;7.40;;;23.00;46.80;;;;;;5040918;28;20025;-67
2023/04/22 03:25:10;;;;;;;8.55;7.07;;;23.00;46.80;;;;;;5041131;28;20025;-68
2023/04/22 03:27:36;;;;;;;9.43;7.32;;;23.00;46.80;;;;;;5043280;28;20029;-67
2023/04/22 03:30:03;;;;;;;10.10;7.57;;;23.00;46.80;;;;;;5041273;28;20029;-67
2023/04/22 03:32:28;;;;;;;9.02;7.30;;;23.00;46.80;;;;;;5042451;28;20086;-66
2023/04/22 03:34:54;;;;;;;8.50;7.28;;;23.00;46.80;;;;;;5038971;28;20481;-66
2023/04/22 03:37:20;;;;;;;8.48;7.15;;;23.00;46.80;;;;;;5043172;28;20029;-67
2023/04/22 03:39:45;;;;;;;8.65;7.18;;;23.00;46.80;;;;;;5042222;28;20053;-68
2023/04/22 03:42:12;;;;;;;8.50;7.03;;;23.00;46.80;;;;;;5042250;28;20029;-68
2023/04/22 03:44:38;;;;;;;9.18;7.45;;;23.00;46.80;;;;;;5040745;28;20057;-68
2023/04/22 03:47:03;;;;;;;8.95;7.30;;;23.00;46.80;;;;;;5040469;28;20037;-68
2023/04/22 03:49:29;;;;;;;8.82;7.32;;;23.00;46.80;;;;;;5043000;28;20030;-68
2023/04/22 03:51:55;;;;;;;8.48;7.05;;;23.00;46.80;;;;;;5039876;28;20485;-67
2023/04/22 03:54:20;;;;;;;7.70;6.68;;;23.00;46.80;;;;;;5041835;28;20427;-67
2023/04/22 03:56:46;;;;;;;8.25;6.82;;;23.00;46.80;;;;;;5039554;28;20048;-68
2023/04/22 03:59:11;;;;;;;8.52;7.20;;;23.00;46.80;;;;;;5038851;28;20025;-68
2023/04/22 04:01:37;;;;;;;8.50;6.70;;;23.00;46.80;;;;;;5042250;28;20086;-68
2023/04/22 04:04:03;;;;;;;8.25;6.95;;;22.90;46.80;;;;;;5039636;28;20033;-67
2023/04/22 04:06:28;;;;;;;8.15;6.40;;;23.00;46.90;;;;;;5037084;28;20478;-67
2023/04/22 04:08:54;;;;;;;7.70;6.50;;;23.00;46.80;;;;;;5040730;28;20033;-67
2023/04/22 04:11:19;;;;;;;7.78;6.32;;;22.90;46.80;;;;;;5037273;28;20060;-67
2023/04/22 04:13:45;;;;;;;7.88;6.35;;;22.90;46.80;;;;;;5040492;28;20028;-67
2023/04/22 04:16:11;;;;;;;8.32;6.70;;;22.90;46.80;;;;;;5039244;28;20029;-66
2023/04/22 04:18:37;;;;;;;8.52;6.65;;;22.90;46.80;;;;;;5040913;28;20110;-68
2023/04/22 04:21:03;;;;;;;7.80;6.65;;;22.90;46.80;;;;;;5040622;28;20030;-68
2023/04/22 04:23:28;;;;;;;7.72;5.95;;;22.90;46.80;;;;;;5039078;28;20052;-68
2023/04/22 04:25:54;;;;;;;8.35;6.80;;;22.90;46.80;;;;;;5039642;28;20112;-69
2023/04/22 04:28:21;;;;;;;8.13;6.57;;;22.90;46.80;;;;;;5039131;28;20037;-67
2023/04/22 04:30:46;;;;;;;7.47;6.00;;;22.90;46.80;;;;;;5037459;28;20087;-68
2023/04/22 04:33:15;;;;;;;7.00;6.00;;;22.90;46.80;;;;;;5040639;28;20029;-68
2023/04/22 04:35:42;;;;;;;7.35;6.20;;;22.90;46.80;;;;;;5038623;28;20026;-68
2023/04/22 04:38:08;;;;;;;7.90;6.15;;;22.90;46.80;;;;;;5037689;28;20067;-68
2023/04/22 04:40:34;;;;;;;6.93;6.00;;;22.90;46.80;;;;;;5040630;28;20026;-68
2023/04/22 04:43:01;;;;;;;6.97;5.80;;;22.90;46.80;;;;;;5038632;28;20025;-67
2023/04/22 04:45:27;;;;;;;7.47;6.20;;;22.90;46.80;;;;;;5038148;28;20029;-68
2023/04/22 04:47:53;;;;;;;7.22;5.85;;;22.90;46.80;;;;;;5035095;28;20109;-67
2023/04/22 04:50:19;;;;;;;7.13;5.93;;;22.80;46.80;;;;;;5038804;28;20517;-68
2023/04/22 04:52:48;;;;;;;7.25;5.88;;;22.90;46.80;;;;;;5039985;28;20043;-67
2023/04/22 04:55:15;;;;;;;6.55;5.85;;;22.90;46.90;;;;;;5039554;28;20037;-68
2023/04/22 04:57:41;;;;;;;6.90;5.57;;;22.80;46.80;;;;;;5040972;28;20112;-68
2023/04/22 05:00:07;;;;;;;7.25;5.60;;;22.90;46.90;;;;;;5041740;28;20079;-68
2023/04/22 05:02:33;;;;;;;8.23;6.00;;;22.80;46.80;;;;;;5039532;28;20425;-67
2023/04/22 05:04:58;;;;;;;7.00;5.65;;;22.90;46.90;;;;;;5041007;28;20069;-67
2023/04/22 05:07:24;;;;;;;6.57;5.57;;;22.80;46.80;;;;;;5039164;28;20026;-67
2023/04/22 05:09:50;;;;;;;6.53;5.53;;;22.80;46.80;;;;;;5036787;28;20028;-67
2023/04/22 05:12:15;;;;;;;7.07;5.80;;;22.80;46.80;;;;;;5042171;28;20496;-67
2023/04/22 05:14:41;;;;;;;7.13;5.50;;;22.80;46.80;;;;;;5037791;28;20029;-67
2023/04/22 05:17:07;;;;;;;6.50;5.30;;;22.80;46.80;;;;;;5042307;28;20083;-67
2023/04/22 05:19:32;;;;;;;6.70;5.60;;;22.70;46.80;;;;;;5037039;28;20170;-66
2023/04/22 05:21:58;;;;;;;7.22;5.53;;;22.80;46.80;;;;;;5039756;28;20107;-67
2023/04/22 05:24:24;;;;;;;6.97;5.50;;;22.80;46.80;;;;;;5036768;28;20030;-68
2023/04/22 05:26:50;;;;;;;6.72;5.32;;;22.80;46.80;;;;;;5039881;28;20058;-68
2023/04/22 05:29:16;;;;;;;7.65;5.70;;;22.80;46.80;;;;;;5041327;28;20064;-67
2023/04/22 05:31:41;;;;;;;6.15;5.30;;;22.80;46.80;;;;;;5040679;28;20502;-67
2023/04/22 05:34:07;;;;;;;5.95;5.15;;;22.80;46.80;;;;;;5041180;28;20433;-67
2023/04/22 05:36:32;;;;;;;6.30;5.25;;;22.80;46.80;;;;;;5048624;28;20021;-67
2023/04/22 05:38:58;;;;;;;6.78;4.72;;;22.70;46.80;;;;;;5042319;28;20053;-67
2023/04/22 05:41:24;;;;;;;6.32;5.00;;;22.70;46.80;;;;;;5043414;28;20028;-67
2023/04/22 05:43:49;;;;;;;5.78;4.78;;;22.70;46.80;;;;;;5042757;28;20402;-67
2023/04/22 05:46:15;;;;;;;6.57;4.82;;;22.70;46.80;;;;;;5043310;28;20115;-67
2023/04/22 05:48:40;;;;;;;6.50;4.90;;;22.70;46.90;;;;;;5041296;28;20060;-67
2023/04/22 05:51:06;;;;;;;5.95;4.55;;;22.70;46.90;;;;;;5043937;28;20049;-67
2023/04/22 05:53:32;;;;;;;6.35;4.80;;;22.70;46.90;;;;;;5042440;28;20040;-67
2023/04/22 05:55:58;;;;;;;5.68;4.57;;;22.70;47.00;;;;;;5041804;28;20084;-67
2023/04/22 05:58:23;;;;;;;5.85;4.90;;;22.70;46.90;;;;;;5042600;28;20382;-67
2023/04/22 06:00:49;;;;;;;5.82;4.88;;;22.70;47.00;;;;;;5043095;28;20033;-67
2023/04/22 06:03:15;;;;;;;5.70;4.38;;;22.70;47.00;;;;;;5042536;28;20520;-67
2023/04/22 06:05:41;;;;;;;5.72;4.70;;;22.70;47.00;;;;;;5042628;28;20290;-67
2023/04/22 06:08:07;;;;;;;5.60;4.30;;;22.70;47.00;;;;;;5042956;28;20499;-67
2023/04/22 06:10:33;;;;;;;5.53;4.38;;;22.70;47.00;;;;;;5042509;28;20029;-67
2023/04/22 06:12:58;;;;;;;6.63;5.05;;;22.70;47.00;;;;;;5040948;28;20036;-66
2023/04/22 06:15:24;;;;;;;5.53;4.68;;;22.70;47.00;;;;;;5042599;28;20389;-67
2023/04/22 06:17:50;;;;;;;5.88;4.90;;;22.70;47.00;;;;;;5049521;28;20036;-67
2023/04/22 06:20:16;;;;;;;5.72;4.57;;;22.70;47.00;;;;;;5042371;28;20029;-67
2023/04/22 06:22:41;;;;;;;5.95;4.70;;;22.70;47.60;;;;;;5040553;28;20524;-67
2023/04/22 06:25:07;;;;;;;4.82;4.03;;;22.70;47.10;;;;;;5041652;28;20048;-67
2023/04/22 06:27:33;;;;;;;6.00;4.90;;;22.70;47.10;;;;;;5043525;28;20029;-68
2023/04/22 06:29:58;;;;;;;5.78;4.55;;;22.70;47.10;;;;;;5042328;28;20036;-67
2023/04/22 06:32:24;;;;;;;5.15;4.30;;;22.70;47.10;;;;;;5040087;28;20037;-67
2023/04/22 06:34:50;;;;;;;5.38;4.30;;;22.70;47.10;;;;;;5041674;28;20043;-67
2023/04/22 06:37:16;;;;;;;5.18;4.38;;;22.70;47.10;;;;;;5039305;28;20363;-67
2023/04/22 06:39:41;;;;;;;5.38;4.38;;;22.70;47.10;;;;;;5038006;28;20076;-67
2023/04/22 06:42:07;;;;;;;6.30;4.78;;;22.70;47.10;;;;;;5043187;28;20551;-67
2023/04/22 06:44:33;;;;;;;5.70;4.30;;;22.70;47.60;;;;;;5043848;28;20412;-67
2023/04/22 06:46:58;;;;;;;4.90;3.83;;;22.70;47.00;;;;;;5042072;28;20480;-67
2023/04/22 06:49:24;;;;;;;5.97;4.53;;;22.70;47.10;;;;;;5044864;28;20032;-67
2023/04/22 06:51:50;;;;;;;5.30;4.18;;;22.70;47.00;;;;;;5040382;28;20511;-66
2023/04/22 06:54:15;;;;;;;4.60;3.80;;;22.70;47.60;;;;;;5041037;28;20111;-67
2023/04/22 06:56:41;;;;;;;5.35;4.20;;;22.70;47.10;;;;;;5040300;28;20388;-68
2023/04/22 06:59:07;;;;;;;5.68;4.07;;;22.70;47.10;;;;;;5037409;28;20022;-67
2023/04/22 07:01:32;;;;;;;4.72;3.80;;;22.70;47.10;;;;;;5038371;28;20029;-68
2023/04/22 07:03:58;;;;;;;5.00;3.90;;;22.70;47.10;;;;;;5042953;28;20488;-66
2023/04/22 07:06:24;;;;;;;4.95;3.88;;;22.70;47.00;;;;;;5041006;28;20113;-68
2023/04/22 07:08:49;;;;;;;5.85;4.10;;;22.70;47.10;;;;;;5042150;28;20108;-67
2023/04/22 07:11:15;;;;;;;4.88;3.80;;;22.70;47.00;;;;;;5043722;28;20511;-67
2023/04/22 07:13:41;;;;;;;4.50;3.70;;;22.70;47.00;;;;;;5046099;28;20033;-68
2023/04/22 07:16:06;;;;;;;4.45;3.80;;;22.70;47.00;;;;;;5042521;28;20443;-67
2023/04/22 07:18:34;;;;;;;4.03;3.40;;;22.70;47.00;;;;;;5041530;28;20027;-66
2023/04/22 07:21:00;;;;;;;4.07;3.20;;;22.70;47.00;;;;;;5042126;28;20022;-67
2023/04/22 07:23:25;;;;;;;4.60;3.53;;;22.70;46.90;;;;;;5034838;28;20052;-67
2023/04/22 07:25:52;;;;;;;4.25;3.08;;;22.70;46.90;;;;;;5043302;28;20024;-67
2023/04/22 07:28:17;;;;;;;3.83;3.30;;;22.70;47.00;;;;;;5038891;28;20045;-67
2023/04/22 07:30:43;;;;;;;4.32;3.20;;;22.70;46.90;;;;;;5039063;28;20040;-67
2023/04/22 07:33:09;;;;;;;4.38;3.33;;;22.70;46.90;;;;;;5039763;28;20033;-67
2023/04/22 07:35:35;;;;;;;4.25;3.17;;;22.70;46.90;;;;;;5036969;28;20104;-67
2023/04/22 07:38:01;;;;;;;4.07;2.70;;;22.70;46.90;;;;;;5039994;28;20044;-67
2023/04/22 07:40:27;;;;;;;3.42;2.70;;;22.70;46.90;;;;;;5041635;28;20032;-66
2023/04/22 07:42:52;;;;;;;4.55;3.10;;;22.70;46.90;;;;;;5041043;28;20060;-67
2023/04/22 07:45:18;;;;;;;4.35;3.00;;;22.70;46.90;;;;;;5037760;28;20030;-67
2023/04/22 07:47:44;;;;;;;3.58;3.10;;;22.70;46.90;;;;;;5041706;28;20075;-67
2023/04/22 07:50:10;;;;;;;4.10;3.00;;;22.70;46.90;;;;;;5040821;28;20099;-67
2023/04/22 07:52:36;;;;;;;4.07;3.00;;;22.70;47.40;;;;;;5039862;28;20488;-67
2023/04/22 07:55:01;;;;;;;3.65;3.08;;;22.70;46.90;;;;;;5038530;28;20109;-66
2023/04/22 07:57:27;;;;;;;3.70;2.80;;;22.70;46.90;;;;;;5039802;28;20040;-67
2023/04/22 07:59:53;;;;;;;4.10;2.85;;;22.70;46.90;;;;;;5039731;28;20020;-64
2023/04/22 08:02:18;;;;;;;3.75;2.42;;;22.70;46.90;;;;;;5040363;28;20033;-67
2023/04/22 08:04:44;;;;;;;3.88;3.03;;;22.70;46.90;;;;;;5039119;28;20030;-67
2023/04/22 08:07:10;;;;;;;3.33;2.70;;;22.70;47.30;;;;;;5038688;28;20029;-67
2023/04/22 08:09:36;;;;;;;3.83;3.00;;;22.70;46.90;;;;;;5036727;28;20033;-67
2023/04/22 08:12:01;;;;;;;4.63;3.00;;;22.70;46.90;;;;;;5043743;28;20037;-67
2023/04/22 08:14:27;;;;;;;3.33;2.53;;;22.70;46.90;;;;;;5039181;28;20554;-67
2023/04/22 08:16:53;;;;;;;3.38;2.70;;;22.70;47.00;;;;;;5040356;28;20035;-67
2023/04/22 08:19:19;;;;;;;3.47;2.70;;;22.70;47.00;;;;;;5040027;28;20242;-67
2023/04/22 08:21:45;;;;;;;3.45;2.63;;;22.70;47.00;;;;;;5036361;28;20048;-67
2023/04/22 08:24:11;;;;;;;3.72;2.72;;;22.70;47.00;;;;;;5041395;28;20622;-67
2023/04/22 08:26:38;;;;;;;3.30;2.50;;;22.70;47.00;;;;;;5041467;28;20124;-67
2023/04/22 08:29:04;;;;;;;2.97;2.35;;;22.70;47.00;;;;;;5037231;28;20033;-67
2023/04/22 08:31:30;;;;;;;3.33;2.70;;;22.70;47.00;;;;;;5039861;28;20025;-68
2023/04/22 08:33:56;;;;;;;3.88;2.70;;;22.70;47.00;;;;;;5035067;28;20025;-67
2023/04/22 08:36:24;;;;;;;3.70;2.30;;;22.70;47.00;;;;;;5040783;28;20028;-67
2023/04/22 08:38:50;;;;;;;3.05;2.40;;;22.70;47.00;;;;;;5038267;28;20021;-67
2023/04/22 08:41:20;;;;;;;3.10;2.40;;;22.70;47.00;;;;;;5038980;28;20091;-67
2023/04/22 08:43:46;;;;;;;3.03;2.25;;;22.70;47.10;;;;;;5038007;28;20473;-68
2023/04/22 08:46:14;;;;;;;3.92;2.70;;;22.70;47.10;;;;;;5039857;28;20444;-68
2023/04/22 08:48:40;;;;;;;3.13;2.35;;;22.70;47.20;;;;;;5038365;28;20053;-67
2023/04/22 08:51:07;;;;;;;3.90;2.60;;;22.70;47.10;;;;;;5039708;28;20021;-67
2023/04/22 08:53:33;;;;;;;2.85;2.20;;;22.70;47.10;;;;;;5038259;28;20091;-67
2023/04/22 08:55:59;;;;;;;3.17;2.10;;;22.70;47.10;;;;;;5039200;28;20476;-67
2023/04/22 08:58:26;;;;;;;2.95;2.25;;;22.70;47.60;;;;;;5039551;28;20025;-67
2023/04/22 09:00:54;;;;;;;3.20;2.13;;;22.70;47.10;;;;;;5039567;28;20035;-68
2023/04/22 09:03:21;;;;;;;3.10;2.35;;;22.70;47.10;;;;;;5039241;28;20082;-68
2023/04/22 09:05:47;;;;;;;3.00;2.20;;;22.70;47.10;;;;;;5040111;28;20031;-68
2023/04/22 09:08:13;;;;;;;3.95;2.10;;;22.70;47.10;;;;;;5039240;28;20545;-67
2023/04/22 09:10:38;;;;;;;3.00;2.15;;;22.70;47.10;;;;;;5038365;28;20032;-67
2023/04/22 09:13:05;;;;;;;3.50;2.35;;;22.70;47.10;;;;;;5037817;28;20430;-67
2023/04/22 09:15:32;;;;;;;3.22;2.38;;;22.70;47.10;;;;;;5038449;28;20061;-68
2023/04/22 09:17:57;;;;;;;2.95;2.20;;;22.70;47.10;;;;;;5038474;28;20021;-68
2023/04/22 09:20:28;;;;;;;2.90;2.20;;;22.70;47.20;;;;;;5039203;28;20029;-68
2023/04/22 09:22:55;;;;;;;3.20;2.33;;;22.70;47.20;;;;;;5037523;28;20139;-68
2023/04/22 09:25:22;;;;;;;3.05;2.20;;;22.70;47.20;;;;;;5037112;28;20029;-68
2023/04/22 09:27:52;;;;;;;2.70;2.20;;;22.70;47.20;;;;;;5037260;28;20473;-67
2023/04/22 09:30:28;;;;;;;3.50;2.45;;;22.80;47.20;;;;;;5040661;28;20091;-68
2023/04/22 09:32:56;;;;;;;3.22;2.33;;;22.70;47.20;;;;;;5037040;28;20104;-67
2023/04/22 09:35:27;;;;;;;3.03;2.42;;;22.70;47.20;;;;;;5037687;28;20025;-68
2023/04/22 09:37:53;;;;;;;2.95;2.30;;;22.70;47.20;;;;;;5034540;28;20040;-68
2023/04/22 09:40:19;;;;;;;3.03;2.28;;;22.80;47.30;;;;;;5036367;28;20446;-65
2023/04/22 09:42:50;;;;;;;3.08;2.10;;;22.80;47.30;;;;;;5038981;28;20031;-68
2023/04/22 09:45:36;;;;;;;2.88;2.13;;;22.80;47.30;;;;;;5042590;28;20477;-68
2023/04/22 09:48:12;;;;;;;3.00;2.20;;;22.70;47.20;;;;;;5039934;28;20025;-68
2023/04/22 09:50:44;;;;;;;2.78;1.90;;;22.80;47.30;;;;;;5040717;28;20030;-68
2023/04/22 09:53:12;;;;;;;3.20;2.08;;;22.80;47.80;;;;;;5037056;28;20423;-68
2023/04/22 09:55:41;;;;;;;3.20;2.10;;;22.80;47.30;;;;;;5038829;28;20034;-68
2023/04/22 09:58:09;;;;;;;2.90;2.00;;;22.80;47.30;;;;;;5038296;28;20060;-68
2023/04/22 10:00:44;;;;;;;3.05;2.20;;;22.80;47.30;;;;;;5038414;28;20037;-68
2023/04/22 10:03:10;;;;;;;2.33;1.80;;;22.80;47.30;;;;;;5038525;28;20507;-69
2023/04/22 10:05:36;;;;;;;3.33;2.20;;;22.80;47.30;;;;;;5038082;28;20111;-68
2023/04/22 10:08:07;;;;;;;2.97;2.10;;;22.80;47.30;;;;;;5037112;28;20025;-68
2023/04/22 10:10:33;;;;;;;2.70;1.90;;;22.80;47.20;;;;;;5037568;28;20473;-68
2023/04/22 10:13:00;;;;;;;2.65;1.90;;;22.80;47.30;;;;;;5034917;28;20516;-69
2023/04/22 10:15:30;;;;;;;2.72;1.95;;;22.80;47.20;;;;;;5040524;28;20036;-68
2023/04/22 10:17:56;;;;;;;2.90;2.00;;;22.80;47.20;;;;;;5040845;28;20591;-68
2023/04/22 10:20:24;;;;;;;2.60;1.90;;;22.80;47.20;;;;;;5042509;28;20029;-68
2023/04/22 10:22:51;;;;;;;2.72;1.80;;;22.80;47.20;;;;;;5041439;28;23610;-68
2023/04/22 10:25:25;;;;;;;2.38;1.90;;;22.80;47.20;;;;;;5041972;28;20433;-68
2023/04/22 10:28:01;;;;;;;2.60;1.90;;;22.80;47.20;;;;;;5041362;28;20099;-68
2023/04/22 10:30:29;;;;;;;3.08;1.90;;;22.80;47.30;;;;;;5043509;28;20019;-68
2023/04/22 10:32:54;;;;;;;2.58;1.83;;;22.80;47.30;;;;;;5042375;28;20032;-68
2023/04/22 10:35:28;;;;;;;2.63;1.80;;;22.80;47.20;;;;;;5040491;28;20021;-68
2023/04/22 10:37:54;;;;;;;2.58;1.80;;;22.80;47.20;;;;;;5039178;28;20108;-68
2023/04/22 10:40:21;;;;;;;2.35;1.67;;;22.80;47.20;;;;;;5044089;28;20162;-68
2023/04/22 10:42:51;;;;;;;2.35;1.70;;;22.90;47.30;;;;;;5042824;28;20490;-68
2023/04/22 10:45:17;;;;;;;2.97;1.60;;;22.90;47.30;;;;;;5040197;28;20320;-68
2023/04/22 10:47:43;;;;;;;2.60;1.80;;;22.80;47.30;;;;;;5040426;28;20068;-68
2023/04/22 10:50:12;;;;;;;2.60;1.67;;;22.90;47.80;;;;;;5042150;28;20476;-68
2023/04/22 10:52:39;;;;;;;2.83;1.85;;;22.90;47.40;;;;;;5040779;28;20029;-68
2023/04/22 10:55:05;;;;;;;2.63;1.80;;;22.90;47.30;;;;;;5039794;28;20531;-68
2023/04/22 10:57:40;;;;;;;2.65;1.90;;;22.90;47.30;;;;;;5044859;28;20021;-68
2023/04/22 11:00:26;;;;;;;2.53;1.85;;;22.90;47.30;;;;;;5041853;28;20017;-68
2023/04/22 11:03:05;;;;;;;2.95;2.05;;;22.90;47.30;;;;;;5041904;28;20029;-68
2023/04/22 11:05:31;;;;;;;2.40;1.70;;;23.00;47.40;;;;;;5042322;28;20108;-68
2023/04/22 11:08:12;;;;;;;3.38;1.98;;;23.00;47.30;;;;;;5042592;28;20102;-68
2023/04/22 11:10:40;;;;;;;2.47;1.80;;;23.00;47.30;;;;;;5041672;28;20025;-68
2023/04/22 11:13:12;;;;;;;2.90;1.63;;;23.10;47.30;;;;;;5041168;28;20082;-68
2023/04/22 11:15:39;;;;;;;2.20;1.70;;;23.00;47.20;;;;;;5040319;28;20018;-68
2023/04/22 11:18:19;;;;;;;1.98;1.48;;;23.10;47.20;;;;;;5040757;28;20684;-69
2023/04/22 11:20:47;;;;;;;2.17;1.45;;;23.10;47.10;;;;;;5040771;28;20482;-68
2023/04/22 11:23:18;;;;;;;2.33;1.63;;;23.10;47.10;;;;;;5040146;28;20025;-69
2023/04/22 11:25:44;;;;;;;2.45;1.80;;;23.20;47.20;;;;;;5041972;28;20037;-66
2023/04/22 11:28:09;;;;;;;2.30;1.70;;;23.20;47.10;;;;;;5038468;28;20119;-68
2023/04/22 11:30:35;;;;;;;2.78;1.80;;;23.20;47.10;;;;;;5041626;28;20037;-68
2023/04/22 11:33:01;;;;;;;2.40;1.70;;;23.20;47.00;;;;;;5040450;28;20476;-68
2023/04/22 11:35:28;;;;;;;2.40;1.48;;;23.30;47.00;;;;;;5040964;28;20017;-68
2023/04/22 11:38:13;;;;;;;3.55;1.73;;;23.30;46.90;;;;;;5040536;28;20080;-67
2023/04/22 11:40:41;;;;;;;3.47;1.70;;;23.30;47.00;;;;;;5040311;28;20207;-68
2023/04/22 11:43:08;;;;;;;2.42;1.63;;;23.30;47.00;;;;;;5041776;28;20155;-68
2023/04/22 11:45:36;;;;;;;2.53;1.60;;;23.40;46.90;;;;;;5039936;28;20116;-68
2023/04/22 11:48:03;;;;;;;2.50;1.55;;;23.40;46.90;;;;;;5040244;28;20028;-68
2023/04/22 11:50:32;;;;;;;2.70;1.38;;;23.40;46.90;;;;;;5039537;28;20104;-67
2023/04/22 11:53:01;;;;;;;2.45;1.80;;;23.40;46.80;;;;;;5040981;28;20578;-68
2023/04/22 11:55:32;;;;;;;2.05;1.58;;;23.40;46.80;;;;;;5040036;28;20041;-68
2023/04/22 11:58:06;;;;;;;2.15;1.40;;;23.40;46.80;;;;;;5042141;28;20045;-68
2023/04/22 12:00:52;;;;;;;2.50;1.77;;;23.40;46.70;;;;;;5041384;28;20049;-68
2023/04/22 12:03:25;;;;;;;2.45;1.65;;;23.50;46.70;;;;;;5034585;28;20033;-68
2023/04/22 12:05:57;;;;;;;2.53;1.70;;;23.50;46.70;;;;;;5037087;28;20063;-68
2023/04/22 12:08:30;;;;;;;2.10;1.45;;;23.50;46.60;;;;;;5038979;28;20035;-68
2023/04/22 12:11:01;;;;;;;2.03;1.40;;;23.50;46.60;;;;;;5040459;28;20026;-69
2023/04/22 12:13:31;;;;;;;1.83;1.40;;;23.50;46.60;;;;;;5038448;28;20033;-68
2023/04/22 12:16:03;;;;;;;2.10;1.58;;;23.60;46.60;;;;;;5042753;28;20163;-70
2023/04/22 12:18:41;;;;;;;2.00;1.40;;;23.60;46.50;;;;;;5038787;28;20486;-70
2023/04/22 12:21:06;;;;;;;2.35;1.50;;;23.60;46.50;;;;;;5039418;28;20032;-70
2023/04/22 12:23:41;;;;;;;2.17;1.50;;;23.60;46.40;;;;;;5040365;28;20033;-70
2023/04/22 12:26:07;;;;;;;2.50;1.48;;;23.60;46.40;;;;;;5046433;28;20037;-70
2023/04/22 12:28:33;;;;;;;1.83;1.40;;;23.70;46.50;;;;;;5041076;28;20040;-70
2023/04/22 12:30:59;;;;;;;2.03;1.50;;;23.70;46.40;;;;;;5039255;28;20429;-70
2023/04/22 12:33:24;;;;;;;1.67;1.20;;;23.70;46.40;;;;;;5039927;28;20033;-71
2023/04/22 12:35:51;;;;;;;1.55;1.35;;;23.70;46.40;;;;;;5040098;28;20450;-69
2023/04/22 12:38:18;;;;;;;1.67;1.40;;;23.70;46.40;;;;;;5036688;28;20596;-70
2023/04/22 12:40:44;;;;;;;2.50;1.60;;;23.70;46.40;;;;;;5038388;28;20476;-70